createdAt,value
2023-01-12T00:02:22.259Z,80.49
2023-01-12T00:04:48.895Z,80.71
2023-01-12T00:07:16.241Z,81.00
2023-01-12T00:09:42.787Z,80.92
2023-01-12T00:12:10.038Z,80.95
2023-01-12T00:14:36.635Z,80.98
2023-01-12T00:17:03.189Z,80.91
2023-01-12T00:19:29.714Z,81.17
2023-01-12T00:21:59.395Z,80.65
2023-01-12T00:24:26.874Z,80.50
2023-01-12T00:26:53.606Z,81.02
2023-01-12T00:29:20.168Z,80.78
2023-01-12T00:31:46.955Z,80.57
2023-01-12T00:34:13.745Z,80.06
2023-01-12T00:36:40.300Z,80.80
2023-01-12T00:39:06.925Z,80.25
2023-01-12T00:41:52.027Z,80.94
2023-01-12T00:44:37.298Z,80.42
2023-01-12T00:47:05.511Z,80.57
2023-01-12T00:49:31.970Z,79.87
2023-01-12T00:51:58.522Z,80.36
2023-01-12T00:54:24.984Z,80.83
2023-01-12T00:56:51.463Z,80.89
2023-01-12T00:59:17.924Z,80.57
2023-01-12T01:01:44.471Z,80.87
2023-01-12T01:04:11.002Z,80.98
2023-01-12T01:06:39.891Z,81.11
2023-01-12T01:09:06.591Z,80.35
2023-01-12T01:14:55.196Z,80.53
2023-01-12T01:17:21.714Z,81.27
2023-01-12T01:19:48.473Z,80.95
2023-01-12T01:22:14.966Z,81.36
2023-01-12T01:24:41.656Z,80.54
2023-01-12T01:27:08.115Z,80.83
2023-01-12T01:29:34.659Z,81.06
2023-01-12T01:32:01.126Z,80.67
2023-01-12T01:34:27.740Z,80.58
2023-01-12T01:36:56.423Z,81.08
2023-01-12T01:39:22.929Z,80.53
2023-01-12T01:41:49.396Z,81.18
2023-01-12T01:44:31.241Z,81.19
2023-01-12T01:47:07.916Z,81.73
2023-01-12T01:49:37.413Z,81.66
2023-01-12T01:52:05.478Z,81.44
2023-01-12T01:54:33.925Z,81.78
2023-01-12T01:57:00.560Z,81.15
2023-01-12T01:59:28.342Z,81.27
2023-01-12T02:01:55.109Z,81.82
2023-01-12T02:04:21.628Z,81.85
2023-01-12T02:06:48.389Z,81.36
2023-01-12T02:09:18.576Z,81.20
2023-01-12T02:12:03.767Z,81.22
2023-01-12T02:14:49.500Z,82.06
2023-01-12T02:17:16.361Z,82.66
2023-01-12T02:19:45.820Z,82.57
2023-01-12T02:22:28.334Z,82.77
2023-01-12T02:24:57.497Z,82.10
2023-01-12T02:27:30.908Z,82.09
2023-01-12T02:30:03.531Z,82.01
2023-01-12T02:32:45.359Z,82.04
2023-01-12T02:35:14.866Z,83.49
2023-01-12T02:37:50.504Z,83.08
2023-01-12T02:40:26.226Z,82.59
2023-01-12T02:43:11.430Z,82.13
2023-01-12T02:45:54.856Z,82.37
2023-01-12T02:48:30.565Z,82.18
2023-01-12T02:51:15.842Z,82.74
2023-01-12T02:53:43.515Z,82.11
2023-01-12T02:56:10.305Z,82.80
2023-01-12T02:58:37.280Z,82.00
2023-01-12T03:01:03.890Z,82.00
2023-01-12T03:03:30.418Z,82.43
2023-01-12T03:06:00.028Z,82.62
2023-01-12T03:08:29.012Z,82.24
2023-01-12T03:10:59.054Z,82.84
2023-01-12T03:13:25.505Z,82.78
2023-01-12T03:15:52.546Z,82.48
2023-01-12T03:18:29.960Z,82.36
2023-01-12T03:20:57.921Z,82.57
2023-01-12T03:23:25.976Z,82.28
2023-01-12T03:25:52.675Z,82.65
2023-01-12T03:28:19.695Z,82.19
2023-01-12T03:30:48.733Z,82.56
2023-01-12T03:33:15.238Z,82.59
2023-01-12T03:35:52.425Z,82.10
2023-01-12T03:38:27.261Z,82.06
2023-01-12T03:40:59.040Z,82.20
2023-01-12T03:43:28.604Z,82.32
2023-01-12T03:45:57.014Z,82.84
2023-01-12T03:48:23.468Z,82.47
2023-01-12T03:50:53.183Z,82.38
2023-01-12T03:53:20.226Z,82.81
2023-01-12T03:55:46.966Z,82.87
2023-01-12T03:58:13.432Z,82.77
2023-01-12T04:00:39.873Z,82.43
2023-01-12T04:03:13.401Z,83.08
2023-01-12T04:05:39.922Z,82.41
2023-01-12T04:08:06.421Z,83.36
2023-01-12T04:10:32.948Z,83.17
2023-01-12T04:12:59.341Z,82.51
2023-01-12T04:15:25.898Z,82.79
2023-01-12T04:17:52.336Z,82.45
2023-01-12T04:20:18.951Z,83.10
2023-01-12T04:22:45.545Z,82.77
2023-01-12T04:25:12.551Z,82.50
2023-01-12T04:28:04.634Z,82.67
2023-01-12T04:30:31.677Z,82.91
2023-01-12T04:32:58.462Z,82.98
2023-01-12T04:35:24.943Z,82.60
2023-01-12T04:37:51.495Z,82.78
2023-01-12T04:40:18.155Z,82.59
2023-01-12T04:43:12.120Z,82.53
2023-01-12T04:45:39.881Z,82.59
2023-01-12T04:48:07.660Z,82.48
2023-01-12T04:50:34.142Z,82.93
2023-01-12T04:53:04.122Z,82.48
2023-01-12T04:55:30.601Z,82.11
2023-01-12T04:57:57.446Z,82.51
2023-01-12T05:00:23.932Z,82.27
2023-01-12T05:02:50.407Z,82.31
2023-01-12T05:09:03.427Z,82.99
2023-01-12T05:11:29.922Z,82.36
2023-01-12T05:13:56.720Z,82.45
2023-01-12T05:16:23.390Z,83.11
2023-01-12T05:18:50.474Z,82.56
2023-01-12T05:21:18.041Z,82.52
2023-01-12T05:23:44.916Z,82.78
2023-01-12T05:29:39.644Z,82.41
2023-01-12T05:32:06.136Z,82.38
2023-01-12T05:34:32.745Z,82.80
2023-01-12T05:36:59.283Z,82.85
2023-01-12T05:39:25.765Z,82.57
2023-01-12T05:42:11.045Z,82.53
2023-01-12T05:44:37.721Z,82.51
2023-01-12T05:47:04.149Z,82.74
2023-01-12T05:49:30.699Z,83.18
2023-01-12T05:51:57.118Z,83.25
2023-01-12T05:54:24.444Z,82.82
2023-01-12T05:56:51.347Z,83.37
2023-01-12T05:59:17.888Z,82.69
2023-01-12T06:01:44.335Z,82.63
2023-01-12T06:04:11.031Z,83.32
2023-01-12T06:06:37.467Z,83.38
2023-01-12T06:09:03.943Z,82.67
2023-01-12T06:14:58.453Z,83.73
2023-01-12T06:17:24.983Z,83.40
2023-01-12T06:19:51.465Z,82.79
2023-01-12T06:22:41.629Z,82.91
2023-01-12T06:25:08.306Z,83.44
2023-01-12T06:27:38.545Z,83.16
2023-01-12T06:30:06.379Z,83.18
2023-01-12T06:32:33.681Z,83.75
2023-01-12T06:35:10.520Z,83.66
2023-01-12T06:37:40.801Z,82.99
2023-01-12T06:40:07.629Z,83.71
2023-01-12T06:42:34.068Z,83.69
2023-01-12T06:45:01.306Z,83.75
2023-01-12T06:47:33.882Z,83.70
2023-01-12T06:50:00.383Z,83.09
2023-01-12T06:52:27.166Z,83.00
2023-01-12T06:54:53.768Z,83.40
2023-01-12T06:57:20.316Z,83.50
2023-01-12T06:59:46.779Z,83.05
2023-01-12T07:02:13.573Z,83.55
2023-01-12T07:04:40.430Z,84.09
2023-01-12T07:07:07.238Z,83.71
2023-01-12T07:09:33.704Z,84.23
2023-01-12T07:12:00.160Z,83.83
2023-01-12T07:14:26.670Z,84.10
2023-01-12T07:16:53.201Z,84.06
2023-01-12T07:19:19.651Z,84.19
2023-01-12T07:21:46.118Z,84.35
2023-01-12T07:24:12.569Z,84.05
2023-01-12T07:26:39.177Z,84.39
2023-01-12T07:29:05.642Z,83.88
2023-01-12T07:31:32.100Z,84.67
2023-01-12T07:33:58.572Z,83.79
2023-01-12T07:36:25.908Z,83.81
2023-01-12T07:38:52.368Z,84.21
2023-01-12T07:41:37.491Z,84.75
2023-01-12T07:44:04.029Z,84.02
2023-01-12T07:46:30.605Z,84.74
2023-01-12T07:48:57.221Z,84.28
2023-01-12T07:51:23.719Z,84.96
2023-01-12T07:54:32.405Z,84.89
2023-01-12T07:56:59.200Z,83.94
2023-01-12T07:59:27.420Z,84.02
2023-01-12T08:05:22.628Z,84.73
2023-01-12T08:07:49.339Z,84.63
2023-01-12T08:10:16.003Z,83.63
2023-01-12T08:12:42.455Z,82.66
2023-01-12T08:15:09.559Z,82.51
2023-01-12T08:17:46.749Z,82.35
2023-01-12T08:20:14.710Z,82.01
2023-01-12T08:22:42.205Z,82.23
2023-01-12T08:25:16.693Z,81.97
2023-01-12T08:27:44.132Z,81.65
2023-01-12T08:30:10.832Z,80.11
2023-01-12T08:32:37.506Z,79.02
2023-01-12T08:35:04.034Z,78.29
2023-01-12T08:37:30.663Z,78.48
2023-01-12T08:39:57.171Z,77.22
2023-01-12T08:42:31.912Z,76.72
2023-01-12T08:44:58.576Z,75.58
2023-01-12T08:47:28.785Z,73.98
2023-01-12T08:49:55.357Z,70.86
2023-01-12T08:52:21.921Z,68.43
2023-01-12T08:54:48.994Z,65.56
2023-01-12T08:57:16.956Z,63.63
2023-01-12T08:59:43.474Z,62.09
2023-01-12T09:02:13.146Z,60.08
2023-01-12T09:04:40.504Z,61.05
2023-01-12T09:07:07.482Z,54.33
2023-01-12T09:09:33.932Z,52.50
2023-01-12T09:12:00.581Z,50.25
2023-01-12T09:14:27.129Z,49.48
2023-01-12T09:16:53.709Z,46.63
2023-01-12T09:19:25.286Z,44.10
2023-01-12T09:21:52.276Z,43.70
2023-01-12T09:24:18.925Z,43.09
2023-01-12T09:26:45.747Z,42.96
2023-01-12T09:29:12.494Z,43.69
2023-01-12T09:31:39.290Z,44.81
2023-01-12T09:34:05.782Z,46.42
2023-01-12T09:36:33.695Z,48.49
2023-01-12T09:39:01.542Z,49.49
2023-01-12T09:41:47.360Z,51.44
2023-01-12T09:44:36.802Z,53.56
2023-01-12T09:47:19.007Z,54.34
2023-01-12T09:49:55.925Z,56.33
2023-01-12T09:52:30.533Z,58.07
2023-01-12T09:55:01.780Z,58.48
2023-01-12T09:57:29.346Z,60.06
2023-01-12T10:00:15.011Z,60.69
2023-01-12T10:02:49.412Z,61.24
2023-01-12T10:05:38.648Z,61.75
2023-01-12T10:08:06.306Z,64.34
2023-01-12T10:10:33.003Z,63.86
2023-01-12T10:13:01.082Z,63.95
2023-01-12T10:15:27.854Z,64.67
2023-01-12T10:17:58.569Z,63.54
2023-01-12T10:20:31.535Z,64.51
2023-01-12T10:23:17.214Z,65.11
2023-01-12T10:25:49.192Z,65.62
2023-01-12T10:28:17.547Z,66.05
2023-01-12T10:30:48.235Z,66.57
2023-01-12T10:33:16.207Z,67.54
2023-01-12T10:35:49.712Z,67.51
2023-01-12T10:38:20.706Z,67.55
2023-01-12T10:41:02.212Z,66.76
2023-01-12T10:43:34.754Z,68.27
2023-01-12T10:46:13.341Z,67.30
2023-01-12T10:49:11.854Z,68.09
2023-01-12T10:51:38.742Z,67.80
2023-01-12T10:54:12.080Z,68.60
2023-01-12T10:56:42.081Z,68.17
2023-01-12T10:59:14.631Z,69.08
2023-01-12T11:01:49.555Z,68.58
2023-01-12T11:04:20.222Z,68.60
2023-01-12T11:07:05.125Z,67.86
2023-01-12T11:09:32.117Z,68.34
2023-01-12T11:11:59.353Z,67.04
2023-01-12T11:14:27.325Z,67.94
2023-01-12T11:16:53.961Z,69.98
2023-01-12T11:19:29.982Z,69.86
2023-01-12T11:21:57.721Z,69.73
2023-01-12T11:24:34.794Z,69.03
2023-01-12T11:27:02.982Z,67.99
2023-01-12T11:29:44.061Z,68.67
2023-01-12T11:32:12.461Z,69.74
2023-01-12T11:34:39.963Z,69.40
2023-01-12T11:37:10.147Z,69.34
2023-01-12T11:39:36.640Z,68.23
2023-01-12T11:42:21.926Z,69.17
2023-01-12T11:44:51.363Z,68.65
2023-01-12T11:47:21.459Z,67.88
2023-01-12T11:49:50.210Z,66.81
2023-01-12T11:52:16.900Z,67.98
2023-01-12T11:54:43.704Z,67.20
2023-01-12T11:57:10.179Z,67.60
2023-01-12T11:59:41.708Z,67.05
2023-01-12T12:02:23.525Z,66.43
2023-01-12T12:04:50.080Z,67.67
2023-01-12T12:07:16.541Z,66.60
2023-01-12T12:09:50.125Z,66.60
2023-01-12T12:12:20.032Z,65.74
2023-01-12T12:15:03.558Z,65.30
2023-01-12T12:17:41.638Z,64.62
2023-01-12T12:20:29.790Z,66.09
2023-01-12T12:23:05.378Z,64.82
2023-01-12T12:25:34.942Z,63.37
2023-01-12T12:28:09.965Z,63.95
2023-01-12T12:30:43.692Z,63.74
2023-01-12T12:33:30.459Z,63.01
2023-01-12T12:36:35.579Z,62.90
2023-01-12T12:39:20.031Z,63.86
2023-01-12T12:42:05.088Z,63.11
2023-01-12T12:45:06.647Z,62.15
2023-01-12T12:47:36.144Z,61.53
2023-01-12T12:50:03.239Z,61.84
2023-01-12T12:52:35.112Z,63.18
2023-01-12T12:55:01.592Z,62.91
2023-01-12T12:57:28.041Z,63.75
2023-01-12T12:59:55.417Z,63.53
2023-01-12T13:02:38.145Z,62.04
2023-01-12T13:05:05.894Z,62.39
2023-01-12T13:07:34.044Z,62.69
2023-01-12T13:10:09.826Z,62.00
2023-01-12T13:12:36.599Z,61.29
2023-01-12T13:15:22.630Z,61.45
2023-01-12T13:17:50.496Z,61.88
2023-01-12T13:20:25.700Z,62.63
2023-01-12T13:22:52.711Z,62.84
2023-01-12T13:25:27.319Z,63.11
2023-01-12T13:28:00.567Z,63.31
2023-01-12T13:30:30.158Z,63.92
2023-01-12T13:33:15.018Z,63.86
2023-01-12T13:35:44.451Z,64.72
2023-01-12T13:38:10.990Z,64.69
2023-01-12T13:40:37.504Z,63.72
2023-01-12T13:43:16.678Z,64.50
2023-01-12T13:45:47.203Z,64.46
2023-01-12T13:48:13.638Z,63.80
2023-01-12T13:50:40.170Z,64.73
2023-01-12T13:53:13.884Z,65.17
2023-01-12T13:55:40.423Z,66.06
2023-01-12T13:58:14.608Z,66.24
2023-01-12T14:00:41.042Z,66.72
2023-01-12T14:03:07.512Z,66.76
2023-01-12T14:05:37.117Z,67.75
2023-01-12T14:08:15.101Z,66.57
2023-01-12T14:10:53.837Z,66.76
2023-01-12T14:13:36.766Z,65.62
2023-01-12T14:16:23.469Z,65.18
2023-01-12T14:18:49.962Z,65.85
2023-01-12T14:21:23.929Z,66.44
2023-01-12T14:23:50.564Z,66.14
2023-01-12T14:26:22.383Z,66.36
2023-01-12T14:28:50.417Z,66.52
2023-01-12T14:31:19.001Z,66.18
2023-01-12T14:33:55.508Z,66.81
2023-01-12T14:36:26.164Z,66.09
2023-01-12T14:38:52.622Z,67.15
2023-01-12T14:41:38.652Z,67.16
2023-01-12T14:44:24.012Z,66.84
2023-01-12T14:46:51.260Z,67.26
2023-01-12T14:49:19.976Z,66.94
2023-01-12T14:51:53.539Z,67.18
2023-01-12T14:54:20.413Z,67.29
2023-01-12T14:56:56.860Z,67.73
2023-01-12T14:59:24.666Z,67.47
2023-01-12T15:01:54.162Z,67.67
2023-01-12T15:04:21.480Z,67.52
2023-01-12T15:06:48.017Z,68.68
2023-01-12T15:09:27.189Z,68.70
2023-01-12T15:11:53.619Z,68.73
2023-01-12T15:14:21.453Z,68.97
2023-01-12T15:17:06.806Z,69.11
2023-01-12T15:19:51.861Z,69.11
2023-01-12T15:22:41.542Z,68.92
2023-01-12T15:25:30.304Z,69.74
2023-01-12T15:27:56.760Z,69.68
2023-01-12T15:30:23.269Z,70.18
2023-01-12T15:32:49.731Z,70.36
2023-01-12T15:35:23.977Z,70.57
2023-01-12T15:37:51.006Z,70.52
2023-01-12T15:40:17.882Z,70.59
2023-01-12T15:42:44.535Z,70.44
2023-01-12T15:45:16.223Z,70.77
2023-01-12T15:47:42.648Z,70.43
2023-01-12T15:50:09.336Z,70.28
2023-01-12T15:52:35.748Z,70.75
2023-01-12T15:55:02.191Z,70.50
2023-01-12T15:57:28.664Z,71.28
2023-01-12T15:59:55.102Z,71.34
2023-01-12T16:02:32.806Z,71.46
2023-01-12T16:04:59.526Z,70.91
2023-01-12T16:07:26.043Z,71.10
2023-01-12T16:09:52.655Z,71.18
2023-01-12T16:12:19.452Z,71.57
2023-01-12T16:14:46.119Z,71.35
2023-01-12T16:17:12.567Z,71.18
2023-01-12T16:19:42.011Z,71.23
2023-01-12T16:22:21.176Z,71.10
2023-01-12T16:24:48.283Z,70.94
2023-01-12T16:27:15.060Z,71.40
2023-01-12T16:29:42.304Z,71.17
2023-01-12T16:32:08.981Z,71.09
2023-01-12T16:34:35.565Z,70.75
2023-01-12T16:37:02.594Z,70.82
2023-01-12T16:39:29.140Z,70.89
2023-01-12T16:42:00.293Z,70.93
2023-01-12T16:44:27.299Z,70.93
2023-01-12T16:46:53.730Z,70.97
2023-01-12T16:49:20.411Z,71.07
2023-01-12T16:51:46.824Z,70.75
2023-01-12T16:54:13.338Z,71.16
2023-01-12T16:56:39.910Z,70.44
2023-01-12T16:59:08.011Z,70.82
2023-01-12T17:01:35.571Z,70.44
2023-01-12T17:04:02.486Z,70.63
2023-01-12T17:06:29.675Z,70.59
2023-01-12T17:08:56.295Z,70.32
2023-01-12T17:11:45.399Z,70.25
2023-01-12T17:20:37.281Z,69.63
2023-01-12T17:23:04.107Z,69.58
2023-01-12T17:25:30.667Z,69.05
2023-01-12T17:27:57.248Z,69.40
2023-01-12T17:30:23.728Z,69.86
2023-01-12T17:32:50.265Z,69.84
2023-01-12T17:38:45.532Z,69.78
2023-01-12T17:41:33.072Z,69.38
2023-01-12T17:44:00.408Z,70.59
2023-01-12T17:46:26.966Z,69.85
2023-01-12T17:48:53.520Z,70.12
2023-01-12T17:51:20.190Z,70.31
2023-01-12T17:53:46.640Z,69.52
2023-01-12T17:56:13.897Z,69.70
2023-01-12T17:58:41.113Z,69.87
2023-01-12T18:01:11.576Z,69.06
2023-01-12T18:03:38.173Z,69.71
2023-01-12T18:06:11.689Z,69.20
2023-01-12T18:08:38.622Z,69.86
2023-01-12T18:11:05.550Z,69.54
2023-01-12T18:13:32.100Z,69.84
2023-01-12T18:15:58.868Z,69.56
2023-01-12T18:18:26.002Z,69.42
2023-01-12T18:20:53.785Z,69.84
2023-01-12T18:23:20.283Z,69.85
2023-01-12T18:25:46.868Z,69.84
2023-01-12T18:28:13.351Z,70.18
2023-01-12T18:30:39.844Z,70.07
2023-01-12T18:33:06.297Z,70.26
2023-01-12T18:35:35.337Z,70.57
2023-01-12T18:38:01.811Z,71.03
2023-01-12T18:40:28.268Z,70.97
2023-01-12T18:42:55.698Z,71.13
2023-01-12T18:45:24.576Z,71.29
2023-01-12T18:48:09.864Z,71.70
2023-01-12T18:54:05.138Z,72.17
2023-01-12T18:56:31.622Z,72.58
2023-01-12T18:58:58.093Z,73.46
2023-01-12T19:01:25.242Z,73.41
2023-01-12T19:03:52.973Z,73.80
2023-01-12T19:06:24.201Z,74.22
2023-01-12T19:09:09.516Z,74.64
2023-01-12T19:11:36.404Z,75.07
2023-01-12T19:14:21.543Z,75.42
2023-01-12T19:17:06.924Z,75.91
2023-01-12T19:19:35.037Z,76.48
2023-01-12T19:22:20.648Z,76.38
2023-01-12T19:25:05.813Z,77.47
2023-01-12T19:27:51.033Z,77.17
2023-01-12T19:30:17.696Z,77.08
2023-01-12T19:32:44.260Z,77.62
2023-01-12T19:35:11.749Z,77.55
2023-01-12T19:37:38.950Z,77.85
2023-01-12T19:40:18.711Z,78.46
2023-01-12T19:43:04.038Z,78.63
2023-01-12T19:45:30.644Z,78.70
2023-01-12T19:47:57.135Z,78.66
2023-01-12T19:50:23.686Z,79.39
2023-01-12T19:52:50.230Z,79.24
2023-01-12T19:55:16.825Z,79.05
2023-01-12T19:57:43.381Z,79.06
2023-01-12T20:00:11.768Z,79.06
2023-01-12T20:02:38.362Z,79.32
2023-01-12T20:05:05.111Z,79.74
2023-01-12T20:07:31.874Z,79.54
2023-01-12T20:10:01.393Z,79.33
2023-01-12T20:12:28.007Z,79.47
2023-01-12T20:14:54.519Z,79.72
2023-01-12T20:20:48.943Z,79.78
2023-01-12T20:23:15.522Z,79.66
2023-01-12T20:25:42.128Z,79.18
2023-01-12T20:28:31.590Z,79.84
2023-01-12T20:30:59.370Z,79.81
2023-01-12T20:33:26.433Z,80.05
2023-01-12T20:35:53.688Z,79.50
2023-01-12T20:38:20.454Z,79.26
2023-01-12T20:40:47.038Z,79.34
2023-01-12T20:43:13.558Z,78.97
2023-01-12T20:45:40.591Z,78.80
2023-01-12T20:48:07.340Z,78.55
2023-01-12T20:50:33.841Z,79.24
2023-01-12T20:53:00.369Z,79.19
2023-01-12T20:55:26.838Z,79.01
2023-01-12T20:57:53.383Z,79.04
2023-01-12T21:00:20.060Z,78.77
2023-01-12T21:02:46.549Z,79.08
2023-01-12T21:05:13.147Z,78.77
2023-01-12T21:07:39.630Z,78.58
2023-01-12T21:10:07.345Z,78.56
2023-01-12T21:12:34.021Z,78.75
2023-01-12T21:15:00.494Z,79.17
2023-01-12T21:17:26.972Z,78.90
2023-01-12T21:19:53.646Z,79.65
2023-01-12T21:22:20.914Z,79.32
2023-01-12T21:24:47.585Z,78.96
2023-01-12T21:27:14.151Z,79.93
2023-01-12T21:29:40.621Z,79.66
2023-01-12T21:32:07.312Z,79.64
2023-01-12T21:34:33.899Z,79.85
2023-01-12T21:37:00.350Z,79.83
2023-01-12T21:39:26.910Z,80.42
2023-01-12T21:42:12.108Z,80.51
2023-01-12T21:44:38.732Z,80.67
2023-01-12T21:47:05.282Z,80.89
2023-01-12T21:49:31.786Z,79.97
2023-01-12T21:51:58.257Z,79.65
2023-01-12T21:54:24.754Z,80.23
2023-01-12T21:56:51.228Z,79.74
2023-01-12T21:59:18.525Z,79.70
2023-01-12T22:01:45.615Z,79.62
2023-01-12T22:04:12.281Z,79.10
2023-01-12T22:06:38.792Z,79.50
2023-01-12T22:09:05.262Z,79.23
2023-01-12T22:11:31.771Z,79.38
2023-01-12T22:13:58.271Z,79.25
2023-01-12T22:16:24.773Z,78.69
2023-01-12T22:18:51.368Z,78.33
2023-01-12T22:21:18.770Z,77.86
2023-01-12T22:23:45.365Z,78.45
2023-01-12T22:26:12.633Z,77.76
2023-01-12T22:28:39.876Z,77.33
2023-01-12T22:31:26.962Z,77.58
2023-01-12T22:33:58.630Z,77.17
2023-01-12T22:36:25.835Z,77.46
2023-01-12T22:38:52.587Z,76.35
2023-01-12T22:41:21.919Z,76.79
2023-01-12T22:43:48.770Z,77.00
2023-01-12T22:46:15.882Z,77.32
2023-01-12T22:48:42.549Z,77.17
2023-01-12T22:51:09.071Z,77.04
2023-01-12T22:53:35.886Z,76.84
2023-01-12T22:56:03.343Z,76.55
2023-01-12T22:58:29.969Z,76.76
2023-01-12T23:01:01.622Z,77.70
2023-01-12T23:03:28.189Z,76.47
2023-01-12T23:05:56.576Z,76.76
2023-01-12T23:08:23.764Z,76.04
2023-01-12T23:10:50.408Z,75.73
2023-01-12T23:13:17.906Z,76.97
2023-01-12T23:15:44.461Z,76.55
2023-01-12T23:18:11.193Z,76.44
2023-01-12T23:20:38.281Z,76.43
2023-01-12T23:26:32.856Z,76.29
2023-01-12T23:29:00.475Z,75.69
2023-01-12T23:31:30.733Z,75.82
2023-01-12T23:33:57.281Z,76.49
2023-01-12T23:36:24.375Z,76.51
2023-01-12T23:38:54.402Z,76.15
2023-01-12T23:41:21.581Z,75.75
2023-01-12T23:43:48.470Z,76.18
2023-01-12T23:46:17.168Z,75.89
2023-01-12T23:48:43.758Z,75.47
2023-01-12T23:51:10.341Z,75.96
2023-01-12T23:53:36.862Z,75.61
2023-01-12T23:56:17.661Z,75.98
2023-01-12T23:58:44.301Z,75.82
